createdAt,value
2023-04-01T00:00:41.293Z,992.93
2023-04-01T00:01:41.305Z,992.95
2023-04-01T00:02:41.493Z,992.93
2023-04-01T00:03:41.622Z,992.94
2023-04-01T00:04:41.621Z,992.92
2023-04-01T00:05:41.245Z,992.93
2023-04-01T00:06:41.322Z,992.89
2023-04-01T00:07:41.249Z,992.95
2023-04-01T00:08:41.203Z,992.94
2023-04-01T00:09:41.219Z,992.95
2023-04-01T00:10:41.187Z,992.92
2023-04-01T00:11:41.179Z,992.91
2023-04-01T00:12:41.159Z,992.92
2023-04-01T00:13:41.154Z,992.95
2023-04-01T00:14:41.161Z,992.91
2023-04-01T00:15:41.134Z,992.94
2023-04-01T00:16:41.167Z,992.90
2023-04-01T00:17:41.129Z,992.90
2023-04-01T00:18:41.134Z,992.95
2023-04-01T00:19:41.086Z,992.89
2023-04-01T00:20:41.095Z,992.98
2023-04-01T00:21:41.070Z,992.94
2023-04-01T00:22:41.045Z,992.99
2023-04-01T00:23:41.043Z,992.97
2023-04-01T00:24:41.059Z,992.90
2023-04-01T00:25:41.054Z,992.89
2023-04-01T00:26:41.009Z,992.88
2023-04-01T00:27:40.998Z,992.93
2023-04-01T00:28:41.042Z,992.93
2023-04-01T00:29:40.975Z,992.94
2023-04-01T00:30:40.970Z,992.90
2023-04-01T00:31:40.997Z,992.90
2023-04-01T00:32:41.009Z,992.89
2023-04-01T00:33:40.946Z,992.88
2023-04-01T00:34:40.968Z,992.92
2023-04-01T00:35:40.912Z,992.84
2023-04-01T00:36:40.975Z,992.87
2023-04-01T00:37:40.887Z,992.86
2023-04-01T00:38:40.877Z,992.86
2023-04-01T00:39:40.895Z,992.93
2023-04-01T00:40:40.858Z,992.87
2023-04-01T00:41:40.846Z,992.93
2023-04-01T00:42:40.836Z,992.86
2023-04-01T00:43:40.839Z,992.97
2023-04-01T00:44:40.833Z,992.93
2023-04-01T00:45:40.804Z,992.92
2023-04-01T00:46:40.876Z,992.92
2023-04-01T00:47:40.810Z,992.92
2023-04-01T00:48:40.789Z,992.91
2023-04-01T00:49:40.756Z,992.91
2023-04-01T00:50:40.798Z,992.92
2023-04-01T00:51:40.750Z,992.96
2023-04-01T00:52:40.736Z,992.96
2023-04-01T00:53:40.724Z,992.93
2023-04-01T00:54:40.702Z,992.94
2023-04-01T00:55:40.715Z,992.94
2023-04-01T00:56:40.685Z,992.87
2023-04-01T00:57:40.688Z,992.96
2023-04-01T00:58:40.664Z,992.91
2023-04-01T00:59:40.649Z,993.00
2023-04-01T01:00:40.679Z,992.91
2023-04-01T01:01:40.741Z,992.86
2023-04-01T01:02:40.812Z,992.91
2023-04-01T01:03:40.609Z,992.95
2023-04-01T01:04:40.613Z,992.89
2023-04-01T01:05:48.779Z,992.91
2023-04-01T01:06:40.615Z,992.87
2023-04-01T01:07:40.569Z,992.96
2023-04-01T01:08:40.553Z,992.93
2023-04-01T01:09:40.567Z,992.95
2023-04-01T01:10:40.528Z,992.99
2023-04-01T01:11:43.794Z,992.95
2023-04-01T01:12:40.504Z,992.96
2023-04-01T01:13:40.496Z,992.98
2023-04-01T01:14:40.507Z,992.94
2023-04-01T01:15:40.484Z,992.96
2023-04-01T01:16:40.572Z,992.95
2023-04-01T01:17:40.487Z,992.95
2023-04-01T01:18:40.439Z,993.00
2023-04-01T01:19:40.446Z,993.03
2023-04-01T01:20:40.413Z,992.92
2023-04-01T01:21:40.406Z,993.00
2023-04-01T01:22:40.438Z,992.92
2023-04-01T01:23:40.392Z,992.94
2023-04-01T01:24:40.376Z,992.93
2023-04-01T01:25:40.377Z,992.95
2023-04-01T01:26:40.361Z,992.93
2023-04-01T01:27:40.359Z,992.98
2023-04-01T01:28:40.326Z,993.01
2023-04-01T01:29:40.318Z,992.97
2023-04-01T01:30:40.358Z,992.98
2023-04-01T01:31:40.302Z,992.98
2023-04-01T01:32:40.308Z,992.96
2023-04-01T01:33:40.270Z,992.90
2023-04-01T01:34:40.264Z,992.94
2023-04-01T01:35:40.316Z,992.97
2023-04-01T01:36:40.240Z,992.93
2023-04-01T01:37:40.254Z,992.98
2023-04-01T01:38:40.238Z,992.97
2023-04-01T01:39:40.216Z,992.96
2023-04-01T01:40:40.202Z,993.06
2023-04-01T01:41:40.192Z,993.01
2023-04-01T01:42:40.199Z,992.99
2023-04-01T01:43:40.168Z,993.01
2023-04-01T01:44:40.147Z,993.01
2023-04-01T01:45:40.202Z,993.02
2023-04-01T01:46:40.272Z,993.04
2023-04-01T01:47:40.194Z,992.99
2023-04-01T01:48:40.102Z,993.04
2023-04-01T01:49:40.099Z,993.05
2023-04-01T01:50:40.087Z,993.04
2023-04-01T01:51:40.074Z,993.04
2023-04-01T01:52:40.083Z,993.05
2023-04-01T01:53:40.063Z,993.01
2023-04-01T01:54:40.062Z,993.02
2023-04-01T01:55:40.044Z,993.05
2023-04-01T01:56:40.060Z,993.01
2023-04-01T01:57:40.032Z,993.04
2023-04-01T01:58:39.997Z,993.04
2023-04-01T01:59:39.997Z,993.04
2023-04-01T02:00:39.977Z,993.02
2023-04-01T02:01:40.003Z,993.05
2023-04-01T02:02:39.988Z,993.10
2023-04-01T02:03:39.949Z,993.09
2023-04-01T02:04:39.967Z,993.04
2023-04-01T02:05:39.924Z,993.06
2023-04-01T02:06:39.906Z,993.11
2023-04-01T02:07:39.921Z,993.14
2023-04-01T02:08:39.887Z,993.13
2023-04-01T02:09:39.890Z,993.15
2023-04-01T02:10:39.887Z,993.10
2023-04-01T02:11:39.876Z,993.11
2023-04-01T02:12:39.852Z,993.07
2023-04-01T02:13:39.853Z,993.11
2023-04-01T02:14:39.813Z,993.10
2023-04-01T02:15:39.834Z,993.16
2023-04-01T02:16:39.812Z,993.14
2023-04-01T02:17:39.839Z,993.14
2023-04-01T02:18:39.788Z,993.13
2023-04-01T02:19:39.773Z,993.12
2023-04-01T02:20:39.757Z,993.11
2023-04-01T02:21:39.762Z,993.09
2023-04-01T02:22:39.731Z,993.15
2023-04-01T02:23:39.740Z,993.14
2023-04-01T02:24:39.709Z,993.09
2023-04-01T02:25:39.695Z,993.18
2023-04-01T02:26:39.707Z,993.14
2023-04-01T02:27:39.671Z,993.13
2023-04-01T02:28:39.680Z,993.12
2023-04-01T02:29:39.651Z,993.15
2023-04-01T02:30:39.664Z,993.15
2023-04-01T02:31:39.667Z,993.14
2023-04-01T02:32:39.679Z,993.21
2023-04-01T02:33:39.626Z,993.18
2023-04-01T02:34:39.605Z,993.18
2023-04-01T02:35:39.741Z,993.17
2023-04-01T02:36:39.591Z,993.17
2023-04-01T02:37:40.599Z,993.19
2023-04-01T02:38:39.581Z,993.19
2023-04-01T02:39:39.537Z,993.20
2023-04-01T02:40:39.530Z,993.22
2023-04-01T02:41:39.537Z,993.19
2023-04-01T02:42:39.534Z,993.24
2023-04-01T02:43:39.493Z,993.22
2023-04-01T02:44:39.482Z,993.24
2023-04-01T02:45:39.485Z,993.21
2023-04-01T02:46:39.514Z,993.22
2023-04-01T02:47:39.504Z,993.19
2023-04-01T02:48:39.445Z,993.22
2023-04-01T02:49:39.434Z,993.24
2023-04-01T02:50:39.421Z,993.23
2023-04-01T02:51:39.430Z,993.28
2023-04-01T02:52:39.401Z,993.30
2023-04-01T02:53:39.381Z,993.24
2023-04-01T02:54:39.376Z,993.27
2023-04-01T02:55:39.377Z,993.27
2023-04-01T02:56:39.377Z,993.29
2023-04-01T02:57:39.340Z,993.31
2023-04-01T02:58:39.350Z,993.36
2023-04-01T02:59:39.325Z,993.37
2023-04-01T03:00:39.314Z,993.32
2023-04-01T03:01:39.503Z,993.37
2023-04-01T03:02:39.367Z,993.35
2023-04-01T03:03:39.345Z,993.35
2023-04-01T03:04:39.272Z,993.39
2023-04-01T03:05:39.252Z,993.33
2023-04-01T03:06:39.243Z,993.36
2023-04-01T03:07:39.258Z,993.35
2023-04-01T03:08:39.225Z,993.35
2023-04-01T03:09:39.222Z,993.38
2023-04-01T03:10:39.202Z,993.39
2023-04-01T03:11:39.199Z,993.43
2023-04-01T03:12:39.196Z,993.43
2023-04-01T03:13:39.173Z,993.46
2023-04-01T03:14:39.182Z,993.38
2023-04-01T03:15:39.144Z,993.44
2023-04-01T03:16:39.145Z,993.44
2023-04-01T03:17:39.192Z,993.43
2023-04-01T03:18:39.125Z,993.45
2023-04-01T03:19:39.104Z,993.45
2023-04-01T03:20:39.095Z,993.40
2023-04-01T03:21:39.078Z,993.37
2023-04-01T03:22:41.432Z,993.38
2023-04-01T03:23:39.059Z,993.41
2023-04-01T03:24:39.075Z,993.42
2023-04-01T03:25:39.043Z,993.43
2023-04-01T03:26:39.024Z,993.43
2023-04-01T03:27:39.040Z,993.42
2023-04-01T03:28:38.999Z,993.51
2023-04-01T03:29:39.002Z,993.45
2023-04-01T03:30:39.033Z,993.51
2023-04-01T03:31:38.967Z,993.42
2023-04-01T03:32:39.019Z,993.50
2023-04-01T03:33:38.944Z,993.53
2023-04-01T03:34:38.950Z,993.55
2023-04-01T03:35:38.919Z,993.53
2023-04-01T03:36:38.927Z,993.51
2023-04-01T03:37:38.920Z,993.52
2023-04-01T03:38:38.886Z,993.51
2023-04-01T03:39:38.877Z,993.55
2023-04-01T03:40:38.869Z,993.58
2023-04-01T03:41:38.854Z,993.61
2023-04-01T03:42:38.901Z,993.57
2023-04-01T03:43:38.829Z,993.61
2023-04-01T03:44:38.841Z,993.59
2023-04-01T03:45:38.813Z,993.61
2023-04-01T03:46:38.963Z,993.58
2023-04-01T03:47:38.855Z,993.63
2023-04-01T03:48:38.781Z,993.59
2023-04-01T03:49:38.772Z,993.61
2023-04-01T03:50:38.768Z,993.67
2023-04-01T03:51:38.767Z,993.57
2023-04-01T03:52:38.740Z,993.58
2023-04-01T03:53:38.745Z,993.69
2023-04-01T03:54:38.714Z,993.62
2023-04-01T03:55:38.707Z,993.63
2023-04-01T03:56:38.712Z,993.64
2023-04-01T03:57:38.697Z,993.66
2023-04-01T03:58:38.669Z,993.64
2023-04-01T03:59:38.656Z,993.68
2023-04-01T04:00:38.647Z,993.70
2023-04-01T04:01:38.657Z,993.69
2023-04-01T04:02:38.711Z,993.69
2023-04-01T04:03:38.675Z,993.66
2023-04-01T04:04:38.640Z,993.69
2023-04-01T04:05:38.594Z,993.73
2023-04-01T04:06:38.620Z,993.73
2023-04-01T04:07:38.577Z,993.70
2023-04-01T04:08:38.562Z,993.75
2023-04-01T04:09:38.560Z,993.76
2023-04-01T04:10:38.537Z,993.74
2023-04-01T04:11:38.530Z,993.72
2023-04-01T04:12:38.565Z,993.72
2023-04-01T04:13:38.511Z,993.75
2023-04-01T04:14:38.493Z,993.74
2023-04-01T04:15:38.480Z,993.77
2023-04-01T04:16:38.474Z,993.80
2023-04-01T04:17:38.538Z,993.83
2023-04-01T04:18:38.480Z,993.80
2023-04-01T04:19:38.460Z,993.81
2023-04-01T04:20:38.437Z,993.76
2023-04-01T04:21:38.437Z,993.78
2023-04-01T04:22:38.412Z,993.81
2023-04-01T04:23:38.402Z,993.80
2023-04-01T04:24:38.413Z,993.83
2023-04-01T04:25:38.371Z,993.83
2023-04-01T04:26:38.364Z,993.88
2023-04-01T04:27:38.356Z,993.82
2023-04-01T04:28:38.348Z,993.77
2023-04-01T04:29:38.361Z,993.82
2023-04-01T04:30:38.322Z,993.88
2023-04-01T04:31:38.403Z,993.86
2023-04-01T04:32:38.408Z,993.90
2023-04-01T04:33:38.308Z,993.89
2023-04-01T04:34:38.302Z,993.89
2023-04-01T04:35:38.281Z,993.88
2023-04-01T04:36:38.253Z,993.90
2023-04-01T04:37:38.248Z,993.93
2023-04-01T04:38:38.262Z,993.99
2023-04-01T04:39:38.222Z,993.89
2023-04-01T04:40:38.217Z,993.92
2023-04-01T04:41:38.197Z,993.92
2023-04-01T04:42:38.198Z,993.97
2023-04-01T04:43:38.195Z,993.96
2023-04-01T04:44:38.171Z,993.99
2023-04-01T04:45:38.193Z,993.97
2023-04-01T04:46:38.253Z,993.99
2023-04-01T04:47:38.182Z,994.01
2023-04-01T04:48:38.116Z,994.02
2023-04-01T04:49:38.122Z,994.02
2023-04-01T04:50:38.149Z,993.98
2023-04-01T04:51:38.088Z,993.97
2023-04-01T04:52:38.079Z,994.04
2023-04-01T04:53:38.090Z,994.03
2023-04-01T04:54:38.062Z,993.96
2023-04-01T04:55:38.047Z,994.03
2023-04-01T04:56:38.037Z,994.04
2023-04-01T04:57:38.026Z,994.01
2023-04-01T04:58:38.029Z,994.04
2023-04-01T04:59:38.021Z,994.01
2023-04-01T05:00:38.017Z,994.09
2023-04-01T05:01:38.007Z,994.07
2023-04-01T05:02:38.043Z,994.03
2023-04-01T05:03:37.998Z,994.08
2023-04-01T05:04:37.974Z,994.05
2023-04-01T05:05:37.957Z,994.09
2023-04-01T05:06:37.947Z,994.06
2023-04-01T05:07:37.911Z,994.08
2023-04-01T05:08:37.929Z,994.10
2023-04-01T05:09:37.892Z,994.09
2023-04-01T05:10:37.885Z,994.09
2023-04-01T05:11:37.874Z,994.02
2023-04-01T05:12:37.859Z,994.08
2023-04-01T05:13:37.869Z,994.14
2023-04-01T05:14:37.836Z,994.09
2023-04-01T05:15:37.823Z,994.11
2023-04-01T05:16:37.857Z,994.08
2023-04-01T05:17:37.850Z,994.13
2023-04-01T05:18:37.812Z,994.12
2023-04-01T05:19:37.782Z,994.11
2023-04-01T05:20:37.776Z,994.13
2023-04-01T05:21:37.789Z,994.09
2023-04-01T05:22:37.766Z,994.13
2023-04-01T05:23:37.745Z,994.16
2023-04-01T05:24:37.727Z,994.17
2023-04-01T05:25:37.712Z,994.15
2023-04-01T05:26:37.735Z,994.13
2023-04-01T05:27:37.694Z,994.18
2023-04-01T05:28:37.695Z,994.17
2023-04-01T05:29:37.707Z,994.09
2023-04-01T05:30:37.700Z,994.17
2023-04-01T05:31:37.676Z,994.18
2023-04-01T05:32:37.731Z,994.20
2023-04-01T05:33:37.622Z,994.18
2023-04-01T05:34:37.631Z,994.22
2023-04-01T05:35:37.651Z,994.23
2023-04-01T05:36:37.606Z,994.26
2023-04-01T05:37:37.601Z,994.23
2023-04-01T05:38:37.597Z,994.25
2023-04-01T05:39:37.560Z,994.28
2023-04-01T05:40:37.553Z,994.29
2023-04-01T05:41:37.554Z,994.29
2023-04-01T05:42:38.418Z,994.28
2023-04-01T05:43:37.516Z,994.25
2023-04-01T05:44:37.509Z,994.28
2023-04-01T05:45:37.505Z,994.34
2023-04-01T05:46:37.633Z,994.28
2023-04-01T05:47:37.561Z,994.26
2023-04-01T05:48:37.460Z,994.27
2023-04-01T05:49:37.452Z,994.33
2023-04-01T05:50:37.455Z,994.23
2023-04-01T05:51:37.427Z,994.27
2023-04-01T05:52:37.419Z,994.31
2023-04-01T05:53:37.424Z,994.34
2023-04-01T05:54:37.417Z,994.30
2023-04-01T05:55:37.388Z,994.34
2023-04-01T05:56:37.392Z,994.33
2023-04-01T05:57:37.398Z,994.36
2023-04-01T05:58:37.377Z,994.35
2023-04-01T05:59:37.347Z,994.37
2023-04-01T06:00:37.337Z,994.35
2023-04-01T06:01:37.321Z,994.39
2023-04-01T06:02:37.378Z,994.41
2023-04-01T06:03:37.457Z,994.43
2023-04-01T06:04:37.308Z,994.39
2023-04-01T06:05:37.276Z,994.47
2023-04-01T06:06:37.266Z,994.46
2023-04-01T06:07:37.253Z,994.45
2023-04-01T06:08:37.289Z,994.45
2023-04-01T06:09:37.232Z,994.48
2023-04-01T06:10:37.240Z,994.46
2023-04-01T06:11:37.202Z,994.49
2023-04-01T06:12:37.198Z,994.49
2023-04-01T06:13:37.222Z,994.43
2023-04-01T06:14:37.181Z,994.47
2023-04-01T06:15:37.170Z,994.47
2023-04-01T06:16:37.203Z,994.55
2023-04-01T06:17:37.172Z,994.54
2023-04-01T06:18:37.159Z,994.55
2023-04-01T06:19:37.123Z,994.51
2023-04-01T06:20:37.111Z,994.60
2023-04-01T06:21:37.112Z,994.62
2023-04-01T06:22:37.104Z,994.64
2023-04-01T06:23:37.134Z,994.62
2023-04-01T06:24:37.078Z,994.67
2023-04-01T06:25:37.076Z,994.72
2023-04-01T06:26:37.068Z,994.67
2023-04-01T06:27:37.036Z,994.62
2023-04-01T06:28:37.054Z,994.70
2023-04-01T06:29:37.028Z,994.67
2023-04-01T06:30:37.000Z,994.69
2023-04-01T06:31:37.016Z,994.73
2023-04-01T06:32:37.031Z,994.70
2023-04-01T06:33:36.989Z,994.68
2023-04-01T06:34:36.966Z,994.72
2023-04-01T06:35:37.170Z,994.78
2023-04-01T06:36:36.973Z,994.77
2023-04-01T06:37:36.958Z,994.80
2023-04-01T06:38:36.942Z,994.77
2023-04-01T06:39:36.924Z,994.74
2023-04-01T06:40:36.896Z,994.79
2023-04-01T06:41:36.882Z,994.78
2023-04-01T06:42:36.902Z,994.80
2023-04-01T06:43:36.890Z,994.82
2023-04-01T06:44:36.873Z,994.77
2023-04-01T06:45:37.146Z,994.78
2023-04-01T06:46:36.829Z,994.77
2023-04-01T06:47:36.827Z,994.78
2023-04-01T06:48:36.803Z,994.82
2023-04-01T06:49:36.822Z,994.82
2023-04-01T06:50:36.792Z,994.87
2023-04-01T06:51:36.774Z,994.84
2023-04-01T06:52:36.763Z,994.84
2023-04-01T06:53:36.759Z,994.84
2023-04-01T06:54:36.762Z,994.90
2023-04-01T06:55:36.741Z,994.86
2023-04-01T06:56:36.744Z,994.87
2023-04-01T06:57:36.709Z,994.85
2023-04-01T06:58:36.720Z,994.83
2023-04-01T06:59:36.721Z,994.85
2023-04-01T07:00:36.685Z,994.86
2023-04-01T07:01:36.722Z,994.91
2023-04-01T07:02:36.654Z,994.86
2023-04-01T07:03:36.642Z,994.89
2023-04-01T07:04:36.707Z,994.82
2023-04-01T07:05:36.645Z,994.89
2023-04-01T07:06:36.605Z,994.89
2023-04-01T07:07:36.598Z,994.89
2023-04-01T07:08:36.583Z,994.90
2023-04-01T07:09:36.586Z,994.88
2023-04-01T07:10:36.581Z,994.92
2023-04-01T07:11:36.585Z,994.94
2023-04-01T07:12:36.549Z,994.90
2023-04-01T07:13:36.565Z,994.95
2023-04-01T07:14:36.542Z,994.93
2023-04-01T07:15:36.535Z,994.96
2023-04-01T07:16:36.509Z,994.97
2023-04-01T07:17:36.524Z,994.97
2023-04-01T07:18:36.550Z,994.97
2023-04-01T07:19:36.496Z,994.99
2023-04-01T07:20:36.487Z,994.99
2023-04-01T07:21:36.434Z,995.05
2023-04-01T07:22:36.435Z,994.98
2023-04-01T07:23:36.422Z,995.02
2023-04-01T07:24:36.400Z,995.04
2023-04-01T07:25:36.437Z,994.98
2023-04-01T07:26:36.379Z,995.03
2023-04-01T07:27:36.371Z,995.01
2023-04-01T07:28:36.353Z,995.07
2023-04-01T07:29:36.355Z,995.04
2023-04-01T07:30:36.378Z,995.04
2023-04-01T07:31:36.380Z,995.07
2023-04-01T07:32:36.554Z,995.09
2023-04-01T07:33:36.309Z,995.12
2023-04-01T07:34:36.291Z,995.14
2023-04-01T07:35:36.309Z,995.10
2023-04-01T07:36:36.287Z,995.16
2023-04-01T07:37:36.259Z,995.12
2023-04-01T07:38:36.307Z,995.18
2023-04-01T07:39:36.257Z,995.12
2023-04-01T07:40:36.255Z,995.17
2023-04-01T07:41:36.233Z,995.23
2023-04-01T07:42:36.203Z,995.21
2023-04-01T07:43:36.196Z,995.27
2023-04-01T07:44:36.181Z,995.21
2023-04-01T07:45:36.416Z,995.18
2023-04-01T07:46:36.251Z,995.27
2023-04-01T07:47:36.202Z,995.23
2023-04-01T07:48:36.140Z,995.25
2023-04-01T07:49:36.136Z,995.27
2023-04-01T07:50:36.135Z,995.27
2023-04-01T07:51:36.155Z,995.27
2023-04-01T07:52:36.092Z,995.30
2023-04-01T07:53:36.089Z,995.31
2023-04-01T07:54:36.097Z,995.30
2023-04-01T07:55:36.327Z,995.29
2023-04-01T07:56:36.049Z,995.26
2023-04-01T07:57:36.076Z,995.39
2023-04-01T07:58:36.028Z,995.41
2023-04-01T07:59:36.050Z,995.42
2023-04-01T08:00:36.015Z,995.39
2023-04-01T08:01:36.001Z,995.35
2023-04-01T08:02:36.090Z,995.43
2023-04-01T08:03:36.051Z,995.42
2023-04-01T08:04:36.037Z,995.41
2023-04-01T08:05:35.957Z,995.46
2023-04-01T08:06:35.944Z,995.46
2023-04-01T08:07:35.933Z,995.48
2023-04-01T08:08:35.925Z,995.50
2023-04-01T08:09:35.935Z,995.53
2023-04-01T08:10:35.894Z,995.50
2023-04-01T08:11:35.913Z,995.49
2023-04-01T08:12:35.877Z,995.52
2023-04-01T08:13:35.865Z,995.56
2023-04-01T08:14:35.856Z,995.56
2023-04-01T08:15:36.012Z,995.59
2023-04-01T08:16:35.922Z,995.56
2023-04-01T08:17:35.861Z,995.54
2023-04-01T08:18:35.826Z,995.66
2023-04-01T08:19:35.805Z,995.60
2023-04-01T08:20:35.808Z,995.61
2023-04-01T08:21:35.780Z,995.66
2023-04-01T08:22:35.768Z,995.69
2023-04-01T08:23:35.752Z,995.68
2023-04-01T08:24:46.343Z,995.61
2023-04-01T08:25:36.749Z,995.70
2023-04-01T08:26:35.718Z,995.70
2023-04-01T08:27:35.717Z,995.72
2023-04-01T08:28:35.686Z,995.72
2023-04-01T08:29:35.693Z,995.68
2023-04-01T08:30:35.689Z,995.65
2023-04-01T08:31:35.680Z,995.72
2023-04-01T08:32:35.669Z,995.69
2023-04-01T08:33:35.663Z,995.77
2023-04-01T08:34:35.646Z,995.75
2023-04-01T08:35:38.270Z,995.68
2023-04-01T08:36:35.635Z,995.75
2023-04-01T08:37:35.621Z,995.86
2023-04-01T08:38:35.589Z,995.85
2023-04-01T08:39:35.573Z,995.83
2023-04-01T08:40:35.574Z,995.86
2023-04-01T08:41:35.556Z,995.84
2023-04-01T08:42:35.559Z,995.93
2023-04-01T08:43:35.537Z,995.95
2023-04-01T08:44:35.559Z,995.88
2023-04-01T08:45:35.775Z,995.88
2023-04-01T08:46:35.518Z,995.90
2023-04-01T08:47:35.543Z,995.88
2023-04-01T08:48:35.480Z,995.95
2023-04-01T08:49:35.481Z,995.88
2023-04-01T08:50:35.521Z,995.93
2023-04-01T08:51:35.467Z,995.91
2023-04-01T08:52:35.425Z,995.96
2023-04-01T08:53:35.418Z,995.96
2023-04-01T08:54:35.442Z,995.95
2023-04-01T08:55:35.652Z,995.98
2023-04-01T08:56:35.397Z,995.96
2023-04-01T08:57:35.427Z,995.90
2023-04-01T08:58:35.384Z,995.98
2023-04-01T08:59:35.375Z,996.00
2023-04-01T09:00:35.342Z,996.01
2023-04-01T09:01:35.337Z,995.96
2023-04-01T09:02:35.428Z,996.03
2023-04-01T09:03:35.378Z,996.03
2023-04-01T09:04:35.363Z,996.01
2023-04-01T09:05:35.500Z,996.03
2023-04-01T09:06:35.326Z,996.03
2023-04-01T09:07:35.266Z,996.00
2023-04-01T09:08:35.253Z,996.04
2023-04-01T09:09:35.263Z,996.04
2023-04-01T09:10:35.232Z,996.12
2023-04-01T09:11:35.241Z,996.06
2023-04-01T09:12:35.209Z,996.07
2023-04-01T09:13:35.198Z,996.06
2023-04-01T09:14:35.225Z,996.08
2023-04-01T09:15:35.443Z,996.06
2023-04-01T09:16:35.215Z,996.12
2023-04-01T09:17:35.182Z,996.15
2023-04-01T09:18:35.145Z,996.14
2023-04-01T09:19:35.136Z,996.14
2023-04-01T09:20:35.151Z,996.13
2023-04-01T09:21:35.114Z,996.19
2023-04-01T09:22:35.125Z,996.18
2023-04-01T09:23:35.092Z,996.22
2023-04-01T09:24:35.084Z,996.27
2023-04-01T09:25:35.461Z,996.21
2023-04-01T09:26:35.059Z,996.25
2023-04-01T09:27:35.048Z,996.29
2023-04-01T09:28:35.036Z,996.29
2023-04-01T09:29:35.027Z,996.28
2023-04-01T09:30:35.012Z,996.26
2023-04-01T09:31:35.105Z,996.29
2023-04-01T09:32:35.018Z,996.32
2023-04-01T09:33:34.987Z,996.27
2023-04-01T09:34:34.972Z,996.33
2023-04-01T09:35:35.326Z,996.32
2023-04-01T09:36:34.965Z,996.29
2023-04-01T09:37:34.949Z,996.35
2023-04-01T09:38:34.947Z,996.40
2023-04-01T09:39:34.924Z,996.37
2023-04-01T09:40:34.908Z,996.33
2023-04-01T09:41:34.918Z,996.35
2023-04-01T09:42:34.886Z,996.41
2023-04-01T09:43:34.871Z,996.43
2023-04-01T09:44:34.870Z,996.39
2023-04-01T09:45:35.166Z,996.42
2023-04-01T09:46:34.902Z,996.44
2023-04-01T09:47:34.861Z,996.46
2023-04-01T09:48:34.824Z,996.47
2023-04-01T09:49:34.817Z,996.50
2023-04-01T09:50:34.798Z,996.51
2023-04-01T09:51:34.826Z,996.54
2023-04-01T09:52:34.792Z,996.55
2023-04-01T09:53:34.775Z,996.52
2023-04-01T09:54:34.776Z,996.53
2023-04-01T09:55:34.954Z,996.57
2023-04-01T09:56:34.757Z,996.60
2023-04-01T09:57:34.796Z,996.59
2023-04-01T09:58:34.707Z,996.61
2023-04-01T09:59:35.705Z,996.60
2023-04-01T10:00:34.735Z,996.58
2023-04-01T10:01:34.732Z,996.62
2023-04-01T10:02:34.714Z,996.60
2023-04-01T10:03:34.661Z,996.64
2023-04-01T10:04:34.638Z,996.68
2023-04-01T10:05:34.949Z,996.65
2023-04-01T10:06:34.639Z,996.64
2023-04-01T10:07:34.614Z,996.70
2023-04-01T10:08:34.597Z,996.65
2023-04-01T10:09:34.582Z,996.70
2023-04-01T10:10:34.623Z,996.74
2023-04-01T10:11:34.568Z,996.77
2023-04-01T10:12:34.556Z,996.75
2023-04-01T10:13:34.549Z,996.82
2023-04-01T10:14:34.532Z,996.73
2023-04-01T10:15:34.782Z,996.74
2023-04-01T10:16:34.579Z,996.75
2023-04-01T10:17:34.515Z,996.80
2023-04-01T10:18:34.483Z,996.81
2023-04-01T10:19:34.469Z,996.78
2023-04-01T10:20:34.464Z,996.85
2023-04-01T10:21:34.476Z,996.88
2023-04-01T10:22:34.447Z,996.89
2023-04-01T10:23:34.435Z,996.86
2023-04-01T10:24:34.470Z,996.85
2023-04-01T10:25:34.909Z,996.82
2023-04-01T10:26:34.435Z,996.93
2023-04-01T10:27:34.454Z,996.93
2023-04-01T10:28:34.403Z,996.90
2023-04-01T10:29:34.364Z,996.89
2023-04-01T10:30:34.351Z,996.86
2023-04-01T10:31:34.359Z,996.86
2023-04-01T10:32:34.347Z,996.90
2023-04-01T10:33:34.352Z,996.93
2023-04-01T10:34:34.319Z,996.89
2023-04-01T10:35:34.566Z,996.85
2023-04-01T10:36:34.282Z,996.91
2023-04-01T10:37:34.278Z,996.94
2023-04-01T10:38:34.260Z,996.92
2023-04-01T10:39:34.269Z,996.92
2023-04-01T10:40:34.250Z,996.93
2023-04-01T10:41:34.228Z,996.91
2023-04-01T10:42:34.245Z,996.97
2023-04-01T10:43:34.209Z,996.93
2023-04-01T10:44:34.221Z,996.99
2023-04-01T10:45:34.558Z,996.95
2023-04-01T10:46:34.317Z,996.96
2023-04-01T10:47:34.198Z,997.02
2023-04-01T10:48:34.149Z,996.98
2023-04-01T10:49:34.168Z,996.98
2023-04-01T10:50:34.160Z,997.00
2023-04-01T10:51:34.174Z,997.00
2023-04-01T10:52:34.111Z,997.02
2023-04-01T10:53:34.108Z,997.08
2023-04-01T10:54:34.106Z,997.08
2023-04-01T10:55:34.440Z,997.04
2023-04-01T10:56:34.100Z,997.07
2023-04-01T10:57:34.148Z,997.02
2023-04-01T10:58:34.064Z,997.13
2023-04-01T10:59:34.029Z,997.10
2023-04-01T11:00:34.040Z,997.03
2023-04-01T11:01:34.058Z,997.10
2023-04-01T11:02:34.065Z,997.07
2023-04-01T11:03:34.052Z,997.06
2023-04-01T11:04:33.996Z,997.06
2023-04-01T11:05:34.358Z,997.09
2023-04-01T11:06:33.961Z,997.13
2023-04-01T11:07:33.945Z,997.11
2023-04-01T11:08:33.950Z,997.13
2023-04-01T11:09:33.941Z,997.13
2023-04-01T11:10:33.956Z,997.11
2023-04-01T11:11:33.916Z,997.17
2023-04-01T11:12:33.913Z,997.18
2023-04-01T11:13:33.883Z,997.14
2023-04-01T11:14:33.893Z,997.19
2023-04-01T11:15:34.194Z,997.22
2023-04-01T11:16:33.925Z,997.21
2023-04-01T11:17:34.064Z,997.26
2023-04-01T11:18:33.829Z,997.19
2023-04-01T11:19:33.806Z,997.25
2023-04-01T11:20:33.800Z,997.24
2023-04-01T11:21:33.811Z,997.29
2023-04-01T11:22:33.801Z,997.31
2023-04-01T11:23:33.774Z,997.27
2023-04-01T11:24:33.805Z,997.26
2023-04-01T11:25:34.209Z,997.28
2023-04-01T11:26:33.800Z,997.26
2023-04-01T11:27:33.750Z,997.29
2023-04-01T11:28:33.735Z,997.28
2023-04-01T11:29:33.731Z,997.34
2023-04-01T11:30:33.777Z,997.33
2023-04-01T11:31:33.787Z,997.38
2023-04-01T11:32:33.720Z,997.40
2023-04-01T11:33:33.650Z,997.38
2023-04-01T11:34:33.648Z,997.43
2023-04-01T11:35:33.842Z,997.36
2023-04-01T11:36:33.730Z,997.44
2023-04-01T11:37:33.642Z,997.43
2023-04-01T11:38:33.601Z,997.42
2023-04-01T11:39:33.616Z,997.47
2023-04-01T11:40:33.582Z,997.49
2023-04-01T11:41:33.598Z,997.45
2023-04-01T11:42:33.586Z,997.47
2023-04-01T11:43:34.163Z,997.49
2023-04-01T11:44:33.538Z,997.49
2023-04-01T11:45:33.685Z,997.48
2023-04-01T11:46:33.595Z,997.57
2023-04-01T11:47:33.592Z,997.60
2023-04-01T11:48:33.513Z,997.55
2023-04-01T11:49:33.484Z,997.55
2023-04-01T11:50:33.472Z,997.61
2023-04-01T11:51:33.460Z,997.62
2023-04-01T11:52:33.487Z,997.63
2023-04-01T11:53:33.451Z,997.59
2023-04-01T11:54:33.432Z,997.62
2023-04-01T11:55:33.584Z,997.66
2023-04-01T11:56:33.403Z,997.64
2023-04-01T11:57:33.465Z,997.71
2023-04-01T11:58:33.407Z,997.65
2023-04-01T11:59:33.369Z,997.71
2023-04-01T12:00:33.370Z,997.68
2023-04-01T12:01:33.342Z,997.71
2023-04-01T12:02:33.427Z,997.73
2023-04-01T12:03:33.454Z,997.72
2023-04-01T12:04:33.375Z,997.76
2023-04-01T12:05:33.445Z,997.74
2023-04-01T12:06:33.295Z,997.81
2023-04-01T12:07:33.276Z,997.81
2023-04-01T12:08:33.292Z,997.74
2023-04-01T12:09:33.249Z,997.79
2023-04-01T12:10:33.247Z,997.78
2023-04-01T12:11:33.239Z,997.79
2023-04-01T12:12:33.224Z,997.84
2023-04-01T12:13:33.243Z,997.82
2023-04-01T12:14:33.239Z,997.82
2023-04-01T12:15:33.455Z,997.90
2023-04-01T12:16:33.254Z,997.90
2023-04-01T12:17:33.209Z,997.94
2023-04-01T12:18:33.182Z,997.84
2023-04-01T12:19:33.169Z,997.89
2023-04-01T12:20:33.162Z,997.94
2023-04-01T12:21:33.143Z,997.98
2023-04-01T12:22:33.969Z,997.94
2023-04-01T12:23:33.120Z,997.93
2023-04-01T12:24:33.097Z,998.01
2023-04-01T12:25:33.411Z,997.96
2023-04-01T12:26:33.069Z,998.01
2023-04-01T12:27:33.060Z,997.95
2023-04-01T12:28:33.056Z,998.02